This is the latest recevied weather packets stored in our database for station/object KC9Q. If no packets are shown the sender has not sent any weather packets the latest 1 day(s).
| Time | Temp. | Humidity | Pressure | Rain* | Wind** | Luminosity | Snow |
|---|---|---|---|---|---|---|---|
| 1777994258 | 16.67° C | 94% | 1008.3 hPa | 0 mm | 1.79 m/s, 165° | 84 W/m² | - |
| 1777993955 | 16.67° C | 95% | 1008.5 hPa | 0 mm | 0.89 m/s, 154° | 98 W/m² | - |
| 1777993652 | 16.67° C | 95% | 1008.4 hPa | 0 mm | 0.89 m/s, 162° | 156 W/m² | - |
| 1777993349 | 16.11° C | 95% | 1008.4 hPa | 0 mm | 1.34 m/s, 157° | 116 W/m² | - |
| 1777993046 | 16.11° C | 95% | 1008.6 hPa | 0 mm | 1.79 m/s, 200° | 87 W/m² | - |
| 1777992743 | 16.11° C | 96% | 1008.1 hPa | 0 mm | 2.24 m/s, 169° | 90 W/m² | - |
| 1777992440 | 16.11° C | 96% | 1008.1 hPa | 0 mm | 1.79 m/s, 162° | 96 W/m² | - |
| 1777992138 | 16.11° C | 96% | 1007.9 hPa | 0 mm | 2.68 m/s, 166° | 88 W/m² | - |
| 1777991835 | 16.11° C | 96% | 1008 hPa | 0 mm | 1.34 m/s, 170° | 111 W/m² | - |
| 1777991532 | 16.11° C | 96% | 1008.1 hPa | 0 mm | 0.45 m/s, 152° | 84 W/m² | - |
| 1777991229 | 16.11° C | 96% | 1008.3 hPa | 0 mm | 0.89 m/s, 160° | 60 W/m² | - |
| 1777990926 | 16.11° C | 96% | 1008.4 hPa | 0 mm | 0.89 m/s, 162° | 68 W/m² | - |
| 1777990624 | 16.11° C | 96% | 1008 hPa | 0 mm | 1.79 m/s, 150° | 60 W/m² | - |
| 1777990320 | 16.11° C | 96% | 1007.6 hPa | 0 mm | 1.79 m/s, 169° | 161 W/m² | - |
| 1777990016 | 16.11° C | 96% | 1007.6 hPa | 0 mm | 0.89 m/s, 217° | 133 W/m² | - |
| 1777989714 | 16.11° C | 96% | 1007.8 hPa | 0 mm | 1.79 m/s, 150° | 88 W/m² | - |
| 1777989410 | 16.11° C | 96% | 1008 hPa | 0.51 mm | 2.68 m/s, 134° | 86 W/m² | - |
| 1777989107 | 15.56° C | 96% | 1007.7 hPa | 0.51 mm | 0.45 m/s, 105° | 141 W/m² | - |
| 1777988802 | 15.56° C | 95% | 1007.8 hPa | 0.51 mm | 1.79 m/s, 173° | 87 W/m² | - |
| 1777988500 | 15.56° C | 95% | 1007.9 hPa | 0.51 mm | 1.34 m/s, 142° | 50 W/m² | - |
| 1777988197 | 15.56° C | 95% | 1008 hPa | 1.27 mm | 0.89 m/s, 158° | 51 W/m² | - |
| 1777987893 | 15.56° C | 94% | 1008.1 hPa | 1.27 mm | 1.34 m/s, 212° | 40 W/m² | - |
| 1777987589 | 15.56° C | 94% | 1008.4 hPa | 1.78 mm | 0.89 m/s, 179° | 36 W/m² | - |
| 1777987287 | 15.56° C | 93% | 1008.6 hPa | 3.05 mm | 1.79 m/s, 190° | 17 W/m² | - |
| 1777986983 | 15.56° C | 93% | 1008.7 hPa | 4.83 mm | 1.79 m/s, 207° | 9 W/m² | - |
* Rain latest hour (hover to see other rain measurements)
** Current wind speed in m/s (hover to see current wind gust speed)